Lyndhurst, United Kingdom
Current Conditions -  °F | °C
As of 12:20 PM on Sunday 21 Dec 2014 (Local Time) from EGHI Reporting Station
Broken Clouds Broken Clouds  
Wind Chill: 43°   Ceiling: 2100
Heat Index: 48°   Visibility: 6mi
Dew Point: 41°   Wind: 12mph
Humidity: 76%   Direction: 260°W
Pressure: 30.36"   Gusts: NA
Location:  50.87°N, 1.58°W
Report Text: EGHI 211220Z 26010KT 230V300 9999 BKN021 09/05 Q1028
Loading
Personal Weather Stations






























Interactive Weather Map New forecast layout! Learn more

10-Day Weather Forecast

Advertisements
Track Severe Weather on mobile